createdAt,value
2022-11-23T00:01:48.909Z,1.73
2022-11-23T00:04:18.329Z,2.50
2022-11-23T00:06:50.347Z,1.93
2022-11-23T00:09:17.414Z,1.80
2022-11-23T00:11:49.525Z,1.80
2022-11-23T00:14:21.295Z,1.67
2022-11-23T00:16:53.194Z,1.83
2022-11-23T00:19:20.457Z,1.77
2022-11-23T00:21:55.322Z,1.90
2022-11-23T00:24:22.541Z,1.50
2022-11-23T00:26:51.795Z,2.40
2022-11-23T00:29:18.890Z,1.80
2022-11-23T00:31:45.986Z,1.73
2022-11-23T00:34:15.738Z,1.97
2022-11-23T00:36:47.345Z,2.07
2022-11-23T00:39:16.800Z,1.70
2022-11-23T00:41:43.884Z,1.90
2022-11-23T00:44:13.355Z,1.80
2022-11-23T00:46:40.558Z,1.83
2022-11-23T00:49:10.178Z,1.93
2022-11-23T00:51:40.186Z,2.30
2022-11-23T00:54:13.141Z,2.20
2022-11-23T00:56:42.564Z,1.73
2022-11-23T00:59:13.022Z,1.90
2022-11-23T01:01:40.169Z,1.53
2022-11-23T01:04:09.712Z,1.97
2022-11-23T01:06:39.453Z,1.90
2022-11-23T01:09:18.063Z,2.17
2022-11-23T01:11:47.428Z,2.07
2022-11-23T01:14:17.518Z,1.93
2022-11-23T01:16:49.633Z,1.97
2022-11-23T01:19:22.016Z,2.13
2022-11-23T01:21:51.711Z,2.10
2022-11-23T01:24:21.459Z,2.20
2022-11-23T01:26:55.359Z,2.60
2022-11-23T01:29:23.689Z,2.10
2022-11-23T01:31:50.786Z,1.93
2022-11-23T01:34:20.192Z,2.10
2022-11-23T01:36:49.516Z,1.87
2022-11-23T01:39:16.620Z,2.10
2022-11-23T01:41:50.489Z,2.33
2022-11-23T01:44:34.186Z,2.27
2022-11-23T01:47:11.108Z,2.50
2022-11-23T01:49:46.248Z,2.33
2022-11-23T01:52:22.058Z,3.50
2022-11-23T01:54:54.797Z,2.13
2022-11-23T01:57:27.089Z,1.93
2022-11-23T01:59:57.384Z,2.13
2022-11-23T02:02:28.211Z,2.47
2022-11-23T02:04:59.643Z,2.40
2022-11-23T02:07:27.049Z,2.50
2022-11-23T02:09:54.682Z,2.70
2022-11-23T02:12:24.309Z,2.30
2022-11-23T02:14:56.457Z,2.30
2022-11-23T02:17:25.647Z,2.27
2022-11-23T02:20:13.470Z,2.20
2022-11-23T02:23:07.016Z,2.60
2022-11-23T02:25:45.489Z,2.20
2022-11-23T02:28:19.662Z,2.20
2022-11-23T02:30:51.251Z,2.27
2022-11-23T02:33:18.442Z,2.30
2022-11-23T02:35:50.312Z,2.40
2022-11-23T02:38:27.328Z,2.97
2022-11-23T02:40:54.470Z,2.63
2022-11-23T02:43:21.842Z,1.97
2022-11-23T02:45:56.051Z,2.67
2022-11-23T02:48:28.328Z,2.93
2022-11-23T02:50:57.775Z,3.23
2022-11-23T02:53:27.318Z,2.70
2022-11-23T02:55:54.387Z,2.60
2022-11-23T02:58:21.534Z,2.23
2022-11-23T03:00:48.922Z,2.60
2022-11-23T03:03:18.319Z,3.00
2022-11-23T03:05:45.537Z,2.53
2022-11-23T03:08:12.642Z,2.50
2022-11-23T03:10:39.761Z,2.70
2022-11-23T03:13:09.831Z,2.03
2022-11-23T03:15:39.587Z,3.07
2022-11-23T03:18:06.791Z,2.97
2022-11-23T03:20:36.720Z,2.20
2022-11-23T03:23:05.916Z,2.53
2022-11-23T03:25:37.576Z,3.17
2022-11-23T03:28:04.914Z,2.47
2022-11-23T03:30:32.138Z,2.23
2022-11-23T03:33:01.600Z,2.20
2022-11-23T03:35:33.476Z,2.70
2022-11-23T03:38:00.556Z,2.40
2022-11-23T03:40:27.670Z,2.53
2022-11-23T03:42:59.292Z,2.50
2022-11-23T03:45:26.389Z,2.70
2022-11-23T03:47:53.715Z,2.50
2022-11-23T03:50:25.581Z,3.30
2022-11-23T03:52:52.718Z,2.47
2022-11-23T03:55:22.607Z,3.10
2022-11-23T03:57:54.320Z,2.80
2022-11-23T04:00:23.505Z,2.53
2022-11-23T04:02:55.462Z,2.70
2022-11-23T04:05:27.850Z,3.00
2022-11-23T04:07:57.052Z,2.40
2022-11-23T04:10:26.548Z,3.13
2022-11-23T04:12:55.947Z,2.60
2022-11-23T04:15:25.506Z,2.43
2022-11-23T04:17:52.670Z,2.50
2022-11-23T04:20:19.708Z,2.40
2022-11-23T04:22:46.816Z,2.73
2022-11-23T04:25:16.362Z,2.50
2022-11-23T04:27:46.368Z,2.70
2022-11-23T04:30:18.433Z,2.10
2022-11-23T04:32:47.572Z,2.90
2022-11-23T04:35:14.725Z,2.50
2022-11-23T04:37:41.837Z,2.60
2022-11-23T04:40:12.335Z,2.53
2022-11-23T04:42:41.934Z,2.10
2022-11-23T04:45:12.163Z,3.10
2022-11-23T04:47:41.964Z,2.27
2022-11-23T04:50:09.193Z,2.60
2022-11-23T04:52:38.535Z,2.67
2022-11-23T04:55:06.141Z,2.47
2022-11-23T04:57:35.227Z,2.67
2022-11-23T05:00:02.868Z,2.40
2022-11-23T05:02:29.985Z,2.00
2022-11-23T05:04:57.071Z,2.57
2022-11-23T05:07:29.047Z,2.30
2022-11-23T05:09:56.208Z,2.47
2022-11-23T05:12:27.469Z,2.43
2022-11-23T05:14:56.743Z,1.90
2022-11-23T05:17:26.185Z,2.73
2022-11-23T05:19:53.413Z,2.70
2022-11-23T05:22:23.135Z,2.57
2022-11-23T05:24:50.266Z,2.70
2022-11-23T05:27:17.408Z,2.67
2022-11-23T05:29:44.536Z,3.20
2022-11-23T05:32:11.592Z,2.90
2022-11-23T05:34:38.776Z,2.90
2022-11-23T05:37:05.906Z,3.07
2022-11-23T05:39:35.316Z,2.80
2022-11-23T05:42:02.460Z,2.80
2022-11-23T05:44:31.861Z,3.00
2022-11-23T05:46:59.407Z,2.80
2022-11-23T05:49:26.609Z,2.70
2022-11-23T05:51:56.194Z,2.87
2022-11-23T05:54:25.642Z,2.47
2022-11-23T05:56:52.731Z,2.77
2022-11-23T05:59:24.700Z,2.87
2022-11-23T06:01:52.237Z,2.90
2022-11-23T06:04:19.390Z,2.57
2022-11-23T06:06:46.574Z,2.53
2022-11-23T06:09:13.673Z,2.40
2022-11-23T06:11:40.859Z,2.50
2022-11-23T06:14:13.947Z,2.70
2022-11-23T06:16:46.175Z,2.30
2022-11-23T06:19:13.454Z,2.63
2022-11-23T06:21:50.122Z,3.10
2022-11-23T06:24:17.651Z,2.63
2022-11-23T06:26:44.828Z,2.83
2022-11-23T06:29:17.102Z,2.30
2022-11-23T06:31:51.461Z,2.37
2022-11-23T06:34:20.650Z,2.90
2022-11-23T06:36:47.742Z,2.50
2022-11-23T06:39:14.829Z,2.40
2022-11-23T06:41:41.982Z,2.47
2022-11-23T06:44:09.235Z,2.37
2022-11-23T06:46:38.643Z,2.73
2022-11-23T06:49:06.211Z,2.70
2022-11-23T06:51:37.886Z,3.37
2022-11-23T06:54:05.011Z,2.63
2022-11-23T06:56:32.571Z,2.63
2022-11-23T06:58:59.893Z,2.93
2022-11-23T07:01:27.126Z,2.57
2022-11-23T07:03:54.389Z,2.33
2022-11-23T07:06:26.165Z,2.70
2022-11-23T07:08:55.380Z,2.50
2022-11-23T07:11:22.487Z,3.37
2022-11-23T07:13:53.734Z,2.73
2022-11-23T07:16:25.190Z,2.90
2022-11-23T07:18:52.587Z,3.20
2022-11-23T07:21:19.748Z,3.20
2022-11-23T07:23:46.863Z,2.70
2022-11-23T07:26:14.014Z,2.90
2022-11-23T07:28:41.124Z,2.90
2022-11-23T07:31:10.691Z,3.30
2022-11-23T07:33:40.176Z,3.03
2022-11-23T07:36:14.889Z,3.90
2022-11-23T07:38:42.106Z,3.27
2022-11-23T07:41:09.188Z,2.90
2022-11-23T07:43:40.949Z,3.63
2022-11-23T07:46:10.068Z,3.43
2022-11-23T07:48:37.191Z,3.07
2022-11-23T07:51:04.393Z,3.23
2022-11-23T07:53:31.459Z,3.10
2022-11-23T07:56:03.910Z,3.27
2022-11-23T07:58:33.284Z,3.03
2022-11-23T08:01:02.506Z,3.13
2022-11-23T08:03:31.813Z,3.20
2022-11-23T08:05:59.186Z,3.27
2022-11-23T08:08:26.344Z,2.50
2022-11-23T08:10:55.947Z,3.33
2022-11-23T08:13:25.348Z,3.23
2022-11-23T08:15:55.274Z,2.90
2022-11-23T08:18:27.693Z,2.87
2022-11-23T08:20:54.873Z,2.87
2022-11-23T08:23:22.291Z,2.67
2022-11-23T08:25:49.416Z,2.97
2022-11-23T08:28:16.539Z,3.00
2022-11-23T08:30:46.722Z,2.50
2022-11-23T08:33:14.084Z,2.77
2022-11-23T08:35:42.409Z,2.93
2022-11-23T08:38:13.432Z,2.57
2022-11-23T08:40:40.771Z,2.80
2022-11-23T08:43:08.042Z,2.47
2022-11-23T08:45:37.346Z,2.60
2022-11-23T08:48:12.175Z,2.33
2022-11-23T08:50:44.485Z,2.33
2022-11-23T08:53:14.233Z,2.93
2022-11-23T08:55:43.874Z,2.33
2022-11-23T08:58:13.761Z,1.80
2022-11-23T09:00:43.334Z,2.63
2022-11-23T09:03:11.655Z,2.50
2022-11-23T09:05:43.362Z,2.10
2022-11-23T09:08:12.967Z,3.00
2022-11-23T09:10:40.265Z,2.30
2022-11-23T09:13:09.677Z,2.03
2022-11-23T09:15:41.613Z,2.47
2022-11-23T09:18:13.441Z,2.20
2022-11-23T09:20:43.258Z,1.97
2022-11-23T09:23:14.031Z,2.20
2022-11-23T09:25:50.156Z,2.17
2022-11-23T09:28:19.805Z,2.47
2022-11-23T09:30:51.402Z,2.17
2022-11-23T09:33:21.068Z,2.07
2022-11-23T09:35:57.938Z,1.83
2022-11-23T09:38:51.617Z,2.23
2022-11-23T09:41:36.258Z,2.10
2022-11-23T09:44:10.009Z,1.93
2022-11-23T09:46:58.895Z,3.23
2022-11-23T09:49:36.054Z,2.20
2022-11-23T09:52:03.310Z,2.87
2022-11-23T09:54:40.108Z,2.30
2022-11-23T09:57:10.459Z,2.57
2022-11-23T09:59:47.188Z,2.30
2022-11-23T10:02:25.945Z,2.10
2022-11-23T10:04:57.867Z,3.07
2022-11-23T10:07:50.953Z,2.40
2022-11-23T10:10:36.378Z,1.90
2022-11-23T10:13:25.637Z,2.07
2022-11-23T10:16:08.133Z,1.70
2022-11-23T10:18:47.067Z,2.10
2022-11-23T10:21:41.795Z,2.00
2022-11-23T10:24:09.216Z,2.43
2022-11-23T10:26:40.101Z,1.97
2022-11-23T10:29:25.663Z,1.70
2022-11-23T10:31:57.285Z,1.70
2022-11-23T10:34:48.389Z,1.67
2022-11-23T10:37:18.828Z,2.33
2022-11-23T10:39:48.170Z,2.63
2022-11-23T10:42:24.514Z,2.37
2022-11-23T10:44:57.039Z,1.93
2022-11-23T10:47:54.904Z,1.80
2022-11-23T10:50:32.432Z,2.10
2022-11-23T10:53:23.203Z,2.27
2022-11-23T10:55:55.327Z,1.90
2022-11-23T10:58:29.682Z,1.80
2022-11-23T11:01:03.984Z,1.70
2022-11-23T11:03:36.122Z,1.87
2022-11-23T11:06:09.035Z,2.20
2022-11-23T11:09:17.778Z,2.23
2022-11-23T11:11:52.268Z,2.10
2022-11-23T11:14:23.501Z,1.60
2022-11-23T11:16:56.335Z,1.70
2022-11-23T11:19:31.997Z,2.13
2022-11-23T11:22:01.315Z,1.30
2022-11-23T11:24:33.674Z,1.80
2022-11-23T11:27:05.056Z,1.60
2022-11-23T11:29:38.649Z,1.70
2022-11-23T11:32:18.791Z,1.60
2022-11-23T11:35:17.616Z,1.70
2022-11-23T11:37:52.928Z,1.87
2022-11-23T11:40:31.216Z,1.60
2022-11-23T11:43:17.834Z,1.47
2022-11-23T11:46:13.074Z,1.80
2022-11-23T11:48:41.675Z,1.60
2022-11-23T11:51:27.964Z,1.70
2022-11-23T11:54:13.315Z,1.33
2022-11-23T11:57:06.472Z,1.30
2022-11-23T11:59:47.876Z,1.37
2022-11-23T12:02:40.952Z,1.80
2022-11-23T12:05:39.286Z,1.87
2022-11-23T12:08:29.647Z,1.60
2022-11-23T12:11:05.527Z,1.37
2022-11-23T12:13:37.466Z,1.50
2022-11-23T12:16:31.607Z,1.30
2022-11-23T12:19:31.035Z,1.50
2022-11-23T12:22:19.865Z,1.20
2022-11-23T12:25:05.654Z,1.53
2022-11-23T12:28:02.745Z,1.20
2022-11-23T12:30:41.907Z,1.10
2022-11-23T12:33:40.151Z,1.17
2022-11-23T12:36:28.572Z,1.20
2022-11-23T12:39:04.391Z,1.33
2022-11-23T12:41:47.849Z,1.33
2022-11-23T12:44:36.556Z,1.03
2022-11-23T12:47:23.757Z,1.50
2022-11-23T12:50:11.957Z,1.90
2022-11-23T12:52:51.044Z,1.20
2022-11-23T12:55:25.246Z,1.73
2022-11-23T12:58:04.273Z,1.40
2022-11-23T13:00:48.401Z,0.97
2022-11-23T13:03:45.288Z,1.60
2022-11-23T13:06:59.256Z,1.30
2022-11-23T13:09:32.718Z,1.40
2022-11-23T13:12:33.049Z,1.60
2022-11-23T13:15:06.202Z,1.20
2022-11-23T13:17:35.754Z,1.53
2022-11-23T13:20:08.374Z,1.20
2022-11-23T13:22:39.265Z,1.37
2022-11-23T13:25:12.739Z,1.30
2022-11-23T13:27:48.709Z,1.53
2022-11-23T13:31:07.104Z,1.20
2022-11-23T13:33:37.471Z,1.27
2022-11-23T13:36:10.352Z,1.30
2022-11-23T13:38:43.901Z,1.10
2022-11-23T13:41:33.624Z,1.30
2022-11-23T13:44:27.290Z,1.20
2022-11-23T13:47:00.699Z,1.20
2022-11-23T13:49:51.374Z,1.30
2022-11-23T13:52:18.488Z,1.07
2022-11-23T13:55:11.556Z,1.60
2022-11-23T13:57:44.310Z,1.23
2022-11-23T14:00:51.249Z,1.20
2022-11-23T14:03:52.204Z,1.10
2022-11-23T14:06:40.752Z,1.20
2022-11-23T14:09:23.139Z,0.90
2022-11-23T14:11:58.757Z,1.10
2022-11-23T14:14:43.044Z,1.23
2022-11-23T14:17:25.315Z,1.37
2022-11-23T14:20:06.660Z,1.10
2022-11-23T14:22:58.169Z,1.23
2022-11-23T14:25:35.455Z,1.10
2022-11-23T14:28:19.795Z,1.00
2022-11-23T14:31:17.404Z,1.00
2022-11-23T14:34:12.196Z,1.10
2022-11-23T14:36:45.106Z,1.03
2022-11-23T14:39:51.445Z,0.90
2022-11-23T14:42:28.138Z,1.07
2022-11-23T14:45:04.864Z,1.00
2022-11-23T14:47:35.084Z,1.00
2022-11-23T14:50:02.301Z,1.13
2022-11-23T14:52:33.657Z,1.30
2022-11-23T14:55:04.008Z,1.13
2022-11-23T14:57:58.976Z,1.20
2022-11-23T15:00:34.309Z,1.17
2022-11-23T15:03:34.470Z,1.13
2022-11-23T15:06:10.575Z,1.20
2022-11-23T15:09:11.005Z,1.10
2022-11-23T15:11:40.524Z,1.37
2022-11-23T15:14:25.886Z,1.00
2022-11-23T15:16:55.597Z,1.20
2022-11-23T15:19:28.872Z,1.17
2022-11-23T15:21:57.170Z,1.30
2022-11-23T15:24:29.807Z,1.40
2022-11-23T15:27:09.484Z,1.27
2022-11-23T15:29:39.994Z,1.03
2022-11-23T15:32:32.126Z,0.93
2022-11-23T15:35:04.469Z,1.20
2022-11-23T15:37:32.732Z,1.13
2022-11-23T15:40:00.635Z,1.03
2022-11-23T15:42:32.709Z,1.10
2022-11-23T15:44:59.878Z,1.50
2022-11-23T15:47:31.108Z,1.20
2022-11-23T15:50:08.873Z,1.17
2022-11-23T15:52:40.913Z,1.60
2022-11-23T15:55:19.408Z,1.50
2022-11-23T15:57:56.007Z,1.63
2022-11-23T16:00:25.542Z,1.50
2022-11-23T16:02:53.113Z,1.67
2022-11-23T16:05:22.620Z,1.33
2022-11-23T16:08:01.369Z,1.47
2022-11-23T16:10:35.170Z,1.23
2022-11-23T16:13:06.267Z,1.43
2022-11-23T16:15:37.946Z,1.50
2022-11-23T16:18:27.775Z,1.60
2022-11-23T16:21:05.985Z,1.33
2022-11-23T16:23:49.207Z,1.80
2022-11-23T16:26:17.328Z,1.57
2022-11-23T16:29:00.712Z,1.57
2022-11-23T16:31:39.620Z,1.40
2022-11-23T16:34:17.901Z,1.80
2022-11-23T16:36:47.560Z,1.50
2022-11-23T16:39:14.656Z,1.63
2022-11-23T16:41:46.211Z,1.80
2022-11-23T16:44:13.344Z,1.67
2022-11-23T16:46:44.080Z,2.17
2022-11-23T16:49:23.299Z,1.87
2022-11-23T16:51:57.150Z,1.93
2022-11-23T16:54:25.573Z,1.77
2022-11-23T16:56:55.491Z,1.50
2022-11-23T16:59:27.344Z,2.13
2022-11-23T17:01:57.712Z,2.00
2022-11-23T17:04:27.421Z,2.10
2022-11-23T17:06:54.726Z,2.37
2022-11-23T17:09:24.142Z,2.20
2022-11-23T17:11:51.531Z,1.83
2022-11-23T17:14:20.680Z,1.90
2022-11-23T17:16:51.675Z,2.10
2022-11-23T17:19:23.342Z,2.20
2022-11-23T17:21:50.774Z,2.00
2022-11-23T17:24:20.359Z,2.37
2022-11-23T17:26:57.508Z,2.20
2022-11-23T17:29:24.669Z,2.37
2022-11-23T17:31:52.034Z,2.20
2022-11-23T17:34:21.640Z,2.40
2022-11-23T17:36:53.469Z,2.43
2022-11-23T17:39:27.403Z,2.37
2022-11-23T17:41:56.753Z,2.80
2022-11-23T17:44:30.795Z,2.83
2022-11-23T17:47:02.126Z,2.73
2022-11-23T17:49:29.253Z,2.73
2022-11-23T17:51:56.914Z,3.00
2022-11-23T17:54:28.775Z,3.47
2022-11-23T17:56:58.161Z,3.50
2022-11-23T17:59:30.443Z,3.53
2022-11-23T18:02:02.561Z,3.90
2022-11-23T18:04:29.912Z,3.93
2022-11-23T18:07:02.898Z,3.43
2022-11-23T18:09:32.857Z,3.27
2022-11-23T18:12:02.645Z,3.37
2022-11-23T18:14:34.472Z,3.20
2022-11-23T18:17:01.619Z,3.27
2022-11-23T18:19:28.800Z,3.50
2022-11-23T18:21:58.184Z,3.07
2022-11-23T18:24:27.799Z,3.40
2022-11-23T18:26:57.189Z,3.03
2022-11-23T18:29:28.832Z,3.53
2022-11-23T18:31:55.912Z,3.27
2022-11-23T18:34:23.066Z,3.57
2022-11-23T18:36:57.520Z,3.60
2022-11-23T18:39:24.905Z,3.60
2022-11-23T18:41:54.144Z,3.90
2022-11-23T18:44:21.209Z,3.30
2022-11-23T18:46:49.313Z,4.07
2022-11-23T18:49:18.672Z,3.60
2022-11-23T18:51:48.260Z,3.57
2022-11-23T18:54:17.923Z,4.40
2022-11-23T18:56:48.020Z,4.40
2022-11-23T18:59:34.991Z,5.30
2022-11-23T19:02:04.843Z,3.87
2022-11-23T19:04:32.560Z,3.53
2022-11-23T19:07:02.729Z,3.83
2022-11-23T19:09:32.221Z,3.83
2022-11-23T19:12:02.817Z,3.83
2022-11-23T19:14:29.917Z,4.00
2022-11-23T19:16:57.060Z,3.83
2022-11-23T19:19:24.189Z,4.00
2022-11-23T19:21:53.509Z,4.50
2022-11-23T19:24:20.723Z,3.97
2022-11-23T19:26:47.861Z,3.57
2022-11-23T19:29:23.609Z,3.77
2022-11-23T19:31:55.180Z,3.60
2022-11-23T19:34:24.887Z,4.13
2022-11-23T19:36:54.224Z,3.67
2022-11-23T19:39:23.960Z,4.00
2022-11-23T19:41:53.343Z,4.00
2022-11-23T19:44:20.654Z,4.73
2022-11-23T19:46:47.839Z,3.80
2022-11-23T19:49:17.627Z,3.80
2022-11-23T19:51:51.036Z,3.77
2022-11-23T19:54:20.464Z,4.30
2022-11-23T19:56:50.022Z,3.87
2022-11-23T19:59:22.033Z,3.33
2022-11-23T20:01:49.177Z,3.43
2022-11-23T20:04:16.274Z,4.17
2022-11-23T20:06:45.795Z,3.50
2022-11-23T20:09:19.121Z,3.73
2022-11-23T20:11:51.300Z,4.07
2022-11-23T20:14:19.400Z,3.83
2022-11-23T20:16:47.665Z,4.00
2022-11-23T20:19:14.822Z,4.27
2022-11-23T20:21:46.514Z,3.93
2022-11-23T20:24:15.176Z,4.60
2022-11-23T20:26:42.965Z,4.33
2022-11-23T20:29:14.215Z,3.53
2022-11-23T20:31:41.747Z,3.57
2022-11-23T20:34:16.695Z,3.90
2022-11-23T20:36:45.606Z,4.03
2022-11-23T20:39:16.151Z,4.43
2022-11-23T20:41:43.434Z,4.00
2022-11-23T20:44:14.681Z,4.00
2022-11-23T20:49:34.095Z,3.90
2022-11-23T20:52:02.119Z,3.80
2022-11-23T20:54:29.552Z,3.83
2022-11-23T20:57:01.100Z,4.03
2022-11-23T20:59:28.352Z,3.50
2022-11-23T21:01:57.755Z,3.73
2022-11-23T21:04:27.431Z,3.87
2022-11-23T21:06:55.089Z,4.17
2022-11-23T21:09:24.290Z,3.23
2022-11-23T21:12:09.890Z,3.50
2022-11-23T21:14:37.577Z,4.33
2022-11-23T21:17:05.081Z,3.83
2022-11-23T21:19:35.044Z,3.90
2022-11-23T21:22:08.763Z,3.93
2022-11-23T21:24:36.669Z,3.60
2022-11-23T21:27:05.114Z,3.83
2022-11-23T21:29:32.320Z,4.50
2022-11-23T21:32:01.510Z,4.00
2022-11-23T21:34:29.965Z,3.90
2022-11-23T21:36:59.450Z,3.40
2022-11-23T21:39:29.864Z,4.03
2022-11-23T21:41:59.568Z,3.73
2022-11-23T21:44:26.805Z,4.23
2022-11-23T21:46:56.373Z,3.97
2022-11-23T21:49:27.254Z,4.43
2022-11-23T21:51:58.882Z,3.43
2022-11-23T21:54:28.464Z,3.60
2022-11-23T21:56:57.819Z,3.43
2022-11-23T21:59:29.769Z,3.33
2022-11-23T22:01:57.219Z,3.47
2022-11-23T22:04:26.986Z,2.80
2022-11-23T22:06:56.290Z,4.37
2022-11-23T22:09:30.937Z,3.10
2022-11-23T22:11:58.000Z,3.23
2022-11-23T22:14:29.543Z,3.50
2022-11-23T22:16:59.314Z,3.20
2022-11-23T22:19:29.016Z,4.03
2022-11-23T22:22:00.541Z,3.67
2022-11-23T22:24:27.701Z,3.30
2022-11-23T22:26:59.412Z,3.13
2022-11-23T22:29:28.701Z,3.37
2022-11-23T22:31:55.900Z,3.17
2022-11-23T22:34:23.147Z,3.40
2022-11-23T22:36:53.185Z,3.10
2022-11-23T22:39:23.011Z,3.00
2022-11-23T22:41:52.648Z,3.50
2022-11-23T22:44:19.764Z,2.90
2022-11-23T22:46:46.962Z,2.90
2022-11-23T22:49:16.239Z,3.07
2022-11-23T22:51:43.365Z,3.53
2022-11-23T22:54:12.779Z,2.70
2022-11-23T22:56:42.018Z,2.97
2022-11-23T22:59:13.538Z,3.17
2022-11-23T23:01:40.708Z,3.10
2022-11-23T23:04:07.965Z,2.53
2022-11-23T23:06:38.336Z,3.43
2022-11-23T23:09:07.050Z,2.80
2022-11-23T23:11:35.716Z,2.47
2022-11-23T23:14:08.255Z,2.30
2022-11-23T23:16:40.163Z,2.37
2022-11-23T23:19:12.218Z,2.73
2022-11-23T23:21:41.609Z,3.10
2022-11-23T23:24:09.538Z,2.40
2022-11-23T23:26:38.848Z,3.37
2022-11-23T23:29:08.329Z,2.80
2022-11-23T23:31:42.785Z,2.50
2022-11-23T23:34:09.891Z,2.60
2022-11-23T23:36:39.253Z,2.60
2022-11-23T23:39:12.356Z,2.67
2022-11-23T23:41:39.605Z,2.50
2022-11-23T23:44:11.963Z,3.10
2022-11-23T23:46:39.340Z,3.53
2022-11-23T23:49:08.851Z,2.33
2022-11-23T23:51:36.303Z,3.07
2022-11-23T23:54:06.329Z,2.83
2022-11-23T23:56:37.972Z,2.87
2022-11-23T23:59:07.195Z,2.70
